Terminal Aerodrome Forecast
Issued by NWS

Home | Current Version | Previous Version | Text Only | Print | Product List | Glossary On
Versions: 1 2 3 4 5 6 7 8 9 10 11 12 13 14 15 16 17 18
000
FTUS41 KGYX 230500
TAFLEB
TAF
KLEB 230520Z 2306/2406 00000KT 6SM BR SKC
     FM230700 00000KT 4SM BR SCT002
     FM231300 21008KT P6SM BKN050
     FM231900 25010KT 4SM -TSRA OVC040CB
     FM240100 30005KT P6SM BKN100=

USA.gov is the U.S. government's official web portal to all federal, state and local government web resources and services.